createdAt,value
2022-10-23T00:02:59.200Z,5.70
2022-10-23T00:05:29.865Z,7.20
2022-10-23T00:08:30.923Z,7.30
2022-10-23T00:10:00.995Z,7.60
2022-10-23T00:15:03.300Z,4.50
2022-10-23T00:17:34.024Z,4.80
2022-10-23T00:24:37.552Z,4.10
2022-10-23T00:28:39.212Z,4.20
2022-10-23T00:31:09.960Z,4.60
2022-10-23T00:34:40.469Z,4.10
2022-10-23T00:37:41.863Z,3.70
2022-10-23T00:42:43.413Z,5.00
2022-10-23T00:45:13.723Z,3.40
2022-10-23T00:50:45.512Z,4.70
2022-10-23T00:53:52.833Z,3.90
2022-10-23T01:01:22.095Z,4.00
2022-10-23T01:10:57.104Z,3.50
2022-10-23T01:15:29.070Z,4.70
2022-10-23T01:20:01.060Z,4.30
2022-10-23T01:23:02.912Z,4.10
2022-10-23T01:26:35.080Z,4.90
2022-10-23T01:30:06.438Z,3.20
2022-10-23T01:32:37.177Z,4.20
2022-10-23T01:34:37.603Z,4.40
2022-10-23T01:36:07.692Z,4.20
2022-10-23T01:38:38.439Z,5.70
2022-10-23T01:40:39.679Z,3.80
2022-10-23T01:44:11.028Z,4.40
2022-10-23T01:47:12.194Z,3.90
2022-10-23T01:49:42.804Z,4.70
2022-10-23T01:57:16.857Z,4.00
2022-10-23T02:05:20.462Z,4.60
2022-10-23T02:08:24.497Z,4.90
2022-10-23T02:09:54.602Z,4.10
2022-10-23T02:11:24.736Z,4.90
2022-10-23T02:18:58.564Z,4.90
2022-10-23T02:23:30.541Z,4.50
2022-10-23T02:28:02.533Z,4.50
2022-10-23T02:30:02.938Z,4.50
2022-10-23T02:38:07.099Z,4.00
2022-10-23T02:39:37.192Z,4.60
2022-10-23T02:46:40.724Z,4.90
2022-10-23T02:50:12.067Z,4.80
2022-10-23T02:51:41.330Z,4.40
2022-10-23T02:53:10.658Z,4.60
2022-10-23T02:54:40.775Z,4.00
2022-10-23T02:58:12.123Z,4.50
2022-10-23T03:00:12.561Z,4.30
2022-10-23T03:06:15.454Z,5.10
2022-10-23T03:07:45.707Z,4.70
2022-10-23T03:14:49.090Z,4.20
2022-10-23T03:20:21.680Z,4.70
2022-10-23T03:23:56.313Z,4.90
2022-10-23T03:25:27.247Z,3.70
2022-10-23T03:27:57.967Z,4.50
2022-10-23T03:31:58.006Z,4.60
2022-10-23T03:34:31.185Z,4.40
2022-10-23T03:36:01.304Z,4.00
2022-10-23T03:42:34.521Z,5.40
2022-10-23T03:45:35.591Z,4.80
2022-10-23T03:47:39.335Z,4.40
2022-10-23T03:50:42.770Z,4.70
2022-10-23T03:52:43.568Z,4.20
2022-10-23T03:54:43.611Z,4.30
2022-10-23T03:58:45.276Z,3.90
2022-10-23T04:00:15.387Z,4.70
2022-10-23T04:02:15.831Z,4.60
2022-10-23T04:08:46.945Z,4.10
2022-10-23T04:11:16.654Z,4.50
2022-10-23T04:12:46.367Z,3.90
2022-10-23T04:14:46.204Z,3.80
2022-10-23T04:27:28.290Z,4.10
2022-10-23T04:31:27.103Z,4.90
2022-10-23T04:33:26.545Z,3.90
2022-10-23T04:34:56.291Z,4.00
2022-10-23T04:37:25.987Z,4.50
2022-10-23T04:38:55.704Z,4.50
2022-10-23T04:41:55.229Z,4.30
2022-10-23T04:44:24.925Z,5.50
2022-10-23T04:46:24.385Z,4.80
2022-10-23T04:49:53.068Z,3.80
2022-10-23T04:53:21.780Z,4.80
2022-10-23T04:55:50.960Z,4.70
2022-10-23T04:57:20.687Z,4.00
2022-10-23T05:00:49.390Z,5.90
2022-10-23T05:02:19.556Z,4.50
2022-10-23T05:03:49.280Z,4.40
2022-10-23T05:05:48.702Z,5.30
2022-10-23T05:07:48.605Z,5.00
2022-10-23T05:09:18.894Z,4.70
2022-10-23T05:10:48.609Z,3.80
2022-10-23T05:14:20.622Z,4.00
2022-10-23T05:15:48.196Z,4.20
2022-10-23T05:22:22.867Z,3.70
2022-10-23T05:23:52.659Z,4.00
2022-10-23T05:25:22.354Z,4.80
2022-10-23T05:26:52.051Z,5.10
2022-10-23T05:28:51.523Z,4.90
2022-10-23T05:31:20.683Z,4.40
2022-10-23T05:33:52.917Z,5.40
2022-10-23T05:36:22.065Z,5.30
2022-10-23T05:40:20.983Z,4.50
2022-10-23T05:43:50.536Z,4.60
2022-10-23T05:45:49.992Z,4.40
2022-10-23T05:48:48.981Z,4.20
2022-10-23T05:56:49.377Z,4.20
2022-10-23T05:58:19.094Z,4.80
2022-10-23T06:00:18.522Z,4.20
2022-10-23T06:02:18.542Z,5.60
2022-10-23T06:04:17.942Z,5.30
2022-10-23T06:06:17.686Z,4.30
2022-10-23T06:08:17.125Z,4.70
2022-10-23T06:09:46.879Z,4.50
2022-10-23T06:12:16.050Z,4.80
2022-10-23T06:16:14.496Z,4.70
2022-10-23T06:20:13.667Z,5.10
2022-10-23T06:21:42.650Z,5.70
2022-10-23T06:23:12.371Z,5.30
2022-10-23T06:25:11.855Z,4.60
2022-10-23T06:30:40.061Z,4.80
2022-10-23T06:37:07.227Z,4.50
2022-10-23T06:38:37.443Z,4.70
2022-10-23T06:40:36.897Z,5.60
2022-10-23T06:46:34.329Z,4.80
2022-10-23T06:48:46.285Z,4.70
2022-10-23T06:51:27.233Z,4.60
2022-10-23T06:53:26.697Z,4.60
2022-10-23T06:55:26.209Z,4.50
2022-10-23T06:57:55.377Z,4.20
2022-10-23T06:59:55.824Z,4.60
2022-10-23T07:01:25.953Z,4.50
2022-10-23T07:02:55.741Z,4.70
2022-10-23T07:06:54.752Z,5.20
2022-10-23T07:09:23.942Z,4.10
2022-10-23T07:11:23.396Z,4.40
2022-10-23T07:15:52.142Z,4.60
2022-10-23T07:17:51.586Z,5.00
2022-10-23T07:22:50.108Z,4.60
2022-10-23T07:28:18.851Z,4.70
2022-10-23T07:33:47.061Z,4.10
2022-10-23T07:44:13.613Z,4.20
2022-10-23T07:45:43.274Z,5.20
2022-10-23T07:47:12.988Z,6.10
2022-10-23T07:51:11.522Z,5.00
2022-10-23T07:53:10.997Z,5.60
2022-10-23T07:55:21.700Z,5.00
2022-10-23T07:56:51.437Z,4.50
2022-10-23T07:59:20.536Z,4.10
2022-10-23T08:01:20.129Z,4.70
2022-10-23T08:03:49.214Z,4.70
2022-10-23T08:05:18.911Z,4.80
2022-10-23T08:09:17.402Z,4.80
2022-10-23T08:12:46.596Z,4.60
2022-10-23T08:15:15.806Z,4.30
2022-10-23T08:21:16.247Z,4.90
2022-10-23T08:23:15.762Z,5.30
2022-10-23T08:24:45.494Z,4.00
2022-10-23T08:26:15.206Z,5.20
2022-10-23T08:27:45.366Z,4.80
2022-10-23T08:29:44.378Z,4.50
2022-10-23T08:32:14.946Z,3.90
2022-10-23T08:34:42.799Z,5.70
2022-10-23T08:36:14.860Z,4.20
2022-10-23T08:42:41.490Z,4.60
2022-10-23T08:45:10.987Z,4.00
2022-10-23T08:48:40.180Z,4.30
2022-10-23T08:50:39.658Z,3.60
2022-10-23T08:54:49.850Z,3.60
2022-10-23T08:56:20.045Z,4.20
2022-10-23T08:57:50.295Z,4.00
2022-10-23T08:59:19.961Z,3.90
2022-10-23T09:01:19.617Z,4.10
2022-10-23T09:03:19.386Z,4.10
2022-10-23T09:08:17.322Z,4.00
2022-10-23T09:11:16.218Z,3.90
2022-10-23T09:13:46.357Z,3.30
2022-10-23T09:16:45.378Z,3.80
2022-10-23T09:18:15.089Z,4.30
2022-10-23T09:20:14.503Z,3.20
2022-10-23T09:22:43.761Z,3.40
2022-10-23T09:26:43.017Z,3.50
2022-10-23T09:28:12.737Z,3.70
2022-10-23T09:30:12.762Z,3.40
2022-10-23T09:31:42.494Z,3.00
2022-10-23T09:33:12.233Z,3.20
2022-10-23T09:40:51.935Z,4.10
2022-10-23T09:44:53.930Z,3.10
2022-10-23T09:47:05.958Z,3.00
2022-10-23T09:50:34.632Z,3.30
2022-10-23T09:54:03.855Z,3.20
2022-10-23T09:57:32.518Z,3.70
2022-10-23T09:59:31.966Z,3.90
2022-10-23T10:02:01.325Z,2.40
2022-10-23T10:05:00.728Z,3.70
2022-10-23T10:07:59.748Z,3.50
2022-10-23T10:10:02.243Z,3.50
2022-10-23T10:12:31.456Z,3.20
2022-10-23T10:15:01.206Z,2.90
2022-10-23T10:17:31.474Z,3.00
2022-10-23T10:20:03.924Z,2.80
2022-10-23T10:22:01.679Z,3.80
2022-10-23T10:23:31.379Z,4.20
2022-10-23T10:26:30.871Z,3.10
2022-10-23T10:29:00.569Z,3.10
2022-10-23T10:31:00.031Z,3.00
2022-10-23T10:32:29.777Z,3.40
2022-10-23T10:34:29.238Z,3.70
2022-10-23T10:36:28.691Z,3.60
2022-10-23T10:51:26.026Z,2.60
2022-10-23T10:52:55.759Z,3.60
2022-10-23T10:55:54.763Z,3.10
2022-10-23T10:57:24.557Z,3.00
2022-10-23T11:00:34.698Z,4.10
2022-10-23T11:03:04.414Z,3.20
2022-10-23T11:05:04.377Z,2.90
2022-10-23T11:09:19.890Z,3.20
2022-10-23T11:14:05.376Z,4.20
2022-10-23T11:16:05.891Z,3.40
2022-10-23T11:18:05.768Z,3.40
2022-10-23T11:22:07.430Z,2.90
2022-10-23T11:23:38.082Z,2.90
2022-10-23T11:25:08.189Z,2.90
2022-10-23T11:27:09.454Z,2.90
2022-10-23T11:30:10.480Z,3.00
2022-10-23T11:32:11.729Z,2.70
2022-10-23T11:34:12.159Z,2.30
2022-10-23T11:40:10.630Z,3.00
2022-10-23T11:41:40.340Z,2.70
2022-10-23T11:43:10.197Z,2.90
2022-10-23T11:44:40.478Z,2.30
2022-10-23T11:46:10.585Z,2.70
2022-10-23T11:51:12.063Z,2.30
2022-10-23T11:54:13.098Z,3.00
2022-10-23T11:58:14.751Z,3.00
2022-10-23T11:59:14.753Z,4.20
2022-10-23T12:00:14.730Z,4.10
2022-10-23T12:02:14.821Z,3.10
2022-10-23T12:04:45.527Z,5.00
2022-10-23T12:06:15.632Z,3.70
2022-10-23T12:08:16.060Z,5.60
2022-10-23T12:11:47.787Z,3.80
2022-10-23T12:18:53.381Z,3.50
2022-10-23T12:34:31.366Z,2.30
2022-10-23T12:36:01.486Z,2.50
2022-10-23T12:37:31.602Z,2.60
2022-10-23T12:42:04.403Z,2.90
2022-10-23T12:44:35.131Z,2.20
2022-10-23T12:46:05.239Z,2.40
2022-10-23T12:47:35.428Z,2.00
2022-10-23T12:50:37.225Z,2.10
2022-10-23T12:52:37.634Z,1.90
2022-10-23T12:56:39.285Z,1.90
2022-10-23T12:58:09.479Z,2.40
2022-10-23T12:59:42.197Z,2.80
2022-10-23T13:01:43.471Z,2.20
2022-10-23T13:04:41.043Z,2.80
2022-10-23T13:07:11.469Z,2.30
2022-10-23T13:08:41.683Z,3.50
2022-10-23T13:11:11.850Z,2.30
2022-10-23T13:15:13.881Z,2.70
2022-10-23T13:17:13.352Z,1.90
2022-10-23T13:20:12.937Z,1.30
2022-10-23T13:21:42.655Z,1.90
2022-10-23T13:23:42.161Z,1.40
2022-10-23T13:26:11.407Z,1.90
2022-10-23T13:29:11.841Z,1.60
2022-10-23T13:30:41.424Z,1.60
2022-10-23T13:32:41.689Z,1.30
2022-10-23T13:36:16.352Z,2.20
2022-10-23T13:39:45.647Z,2.10
2022-10-23T13:45:14.215Z,2.00
2022-10-23T13:49:17.950Z,3.60
2022-10-23T13:54:45.816Z,1.30
2022-10-23T13:56:45.811Z,1.10
2022-10-23T13:59:45.275Z,1.70
2022-10-23T14:01:44.867Z,1.30
2022-10-23T14:03:14.487Z,1.50
2022-10-23T14:05:43.662Z,2.00
2022-10-23T14:07:43.465Z,1.70
2022-10-23T14:09:13.345Z,2.40
2022-10-23T14:11:43.600Z,2.50
2022-10-23T14:13:43.541Z,1.80
2022-10-23T14:17:42.017Z,2.10
2022-10-23T14:23:10.265Z,3.80
2022-10-23T14:24:40.502Z,2.30
2022-10-23T14:26:39.945Z,3.20
2022-10-23T14:29:18.424Z,2.40
2022-10-23T14:32:11.494Z,1.80
2022-10-23T14:34:11.437Z,2.00
2022-10-23T14:36:10.959Z,5.60
2022-10-23T14:39:10.370Z,1.40
2022-10-23T14:41:11.643Z,2.90
2022-10-23T14:45:10.584Z,3.10
2022-10-23T14:50:39.773Z,1.00
2022-10-23T14:54:08.479Z,3.30
2022-10-23T14:56:07.955Z,2.10
2022-10-23T14:57:37.669Z,1.60
2022-10-23T14:59:07.948Z,1.40
2022-10-23T15:01:37.322Z,1.50
2022-10-23T15:03:06.871Z,1.00
2022-10-23T15:11:08.897Z,1.60
2022-10-23T15:15:06.000Z,1.40
2022-10-23T15:17:35.714Z,1.00
2022-10-23T15:19:35.172Z,1.20
2022-10-23T15:21:04.870Z,1.10
2022-10-23T15:23:04.319Z,1.00
2022-10-23T15:25:04.319Z,1.40
2022-10-23T15:27:04.361Z,0.80
2022-10-23T15:29:03.800Z,1.40
2022-10-23T15:37:31.483Z,1.30
2022-10-23T15:39:01.673Z,1.10
2022-10-23T15:41:01.210Z,1.40
2022-10-23T15:42:30.888Z,1.40
2022-10-23T15:45:00.086Z,2.10
2022-10-23T15:47:59.534Z,1.10
2022-10-23T15:50:29.818Z,1.70
2022-10-23T15:51:59.727Z,1.20
2022-10-23T15:58:58.016Z,3.00
2022-10-23T16:07:54.915Z,1.50
2022-10-23T16:10:24.123Z,1.30
2022-10-23T16:12:24.581Z,1.20
2022-10-23T16:14:24.107Z,1.90
2022-10-23T16:16:23.540Z,1.10
2022-10-23T16:23:22.342Z,2.30
2022-10-23T16:26:21.972Z,1.60
2022-10-23T16:27:51.019Z,1.70
2022-10-23T16:33:19.822Z,1.60
2022-10-23T16:35:49.611Z,1.60
2022-10-23T16:41:47.545Z,1.80
2022-10-23T16:46:17.453Z,1.30
2022-10-23T16:48:17.410Z,1.30
2022-10-23T16:52:16.427Z,2.70
2022-10-23T16:56:14.857Z,2.30
2022-10-23T17:04:12.252Z,1.70
2022-10-23T17:05:41.978Z,2.50
2022-10-23T17:07:11.744Z,1.50
2022-10-23T17:12:42.250Z,1.40
2022-10-23T17:19:20.507Z,1.30
2022-10-23T17:21:47.438Z,1.70
2022-10-23T17:23:19.343Z,2.40
2022-10-23T17:28:23.220Z,1.90
2022-10-23T17:29:54.237Z,1.60
2022-10-23T17:31:23.157Z,1.50
2022-10-23T17:33:55.807Z,1.50
2022-10-23T17:38:30.163Z,1.80
2022-10-23T17:43:32.291Z,1.70
2022-10-23T17:48:35.446Z,1.60
2022-10-23T17:52:34.799Z,1.80
2022-10-23T17:54:34.770Z,1.80
2022-10-23T17:57:33.683Z,1.30
2022-10-23T18:00:34.405Z,1.50
2022-10-23T18:02:34.424Z,1.60
2022-10-23T18:04:33.803Z,1.80
2022-10-23T18:08:03.035Z,1.40
2022-10-23T18:09:32.725Z,1.20
2022-10-23T18:11:02.463Z,1.90
2022-10-23T18:13:32.172Z,2.30
2022-10-23T18:16:32.494Z,6.50
2022-10-23T18:18:02.249Z,6.10
2022-10-23T18:26:33.619Z,2.20
2022-10-23T18:28:03.332Z,1.50
2022-10-23T18:29:33.040Z,2.20
2022-10-23T18:31:02.766Z,2.50
2022-10-23T18:33:02.206Z,2.10
2022-10-23T18:36:13.720Z,4.40
2022-10-23T18:40:13.136Z,2.50
2022-10-23T18:44:13.149Z,2.40
2022-10-23T18:46:42.313Z,1.80
2022-10-23T18:51:13.427Z,1.60
2022-10-23T18:56:08.975Z,2.00
2022-10-23T18:59:40.484Z,2.10
2022-10-23T19:01:39.990Z,2.00
2022-10-23T19:03:09.653Z,2.00
2022-10-23T19:10:36.253Z,1.90
2022-10-23T19:13:38.089Z,1.60
2022-10-23T19:15:34.718Z,1.50
2022-10-23T19:17:35.212Z,1.40
2022-10-23T19:21:35.025Z,2.00
2022-10-23T19:25:04.051Z,1.70
2022-10-23T19:28:35.367Z,1.70
2022-10-23T19:31:02.943Z,1.90
2022-10-23T19:34:33.660Z,1.70
2022-10-23T19:38:35.737Z,2.30
2022-10-23T19:41:48.275Z,1.80
2022-10-23T19:45:18.807Z,1.90
2022-10-23T19:48:19.516Z,2.10
2022-10-23T19:49:49.552Z,1.80
2022-10-23T19:52:23.142Z,1.80
2022-10-23T19:56:56.762Z,1.70
2022-10-23T19:59:27.523Z,2.60
2022-10-23T20:00:57.666Z,1.80
2022-10-23T20:07:58.658Z,1.60
2022-10-23T20:09:28.772Z,2.00
2022-10-23T20:10:59.074Z,2.00
2022-10-23T20:13:29.638Z,1.50
2022-10-23T20:18:02.485Z,1.40
2022-10-23T20:21:35.406Z,1.60
2022-10-23T20:28:03.551Z,1.60
2022-10-23T20:31:02.791Z,1.60
2022-10-23T20:33:03.058Z,2.60
2022-10-23T20:36:33.689Z,2.20
2022-10-23T20:41:35.810Z,1.20
2022-10-23T20:43:37.385Z,1.30
2022-10-23T20:47:39.362Z,1.70
2022-10-23T20:49:08.289Z,1.40
2022-10-23T20:53:40.301Z,1.30
2022-10-23T20:55:10.037Z,1.40
2022-10-23T20:59:47.075Z,1.00
2022-10-23T21:04:17.120Z,1.10
2022-10-23T21:08:50.844Z,1.10
2022-10-23T21:13:27.549Z,1.20
2022-10-23T21:17:00.066Z,1.70
2022-10-23T21:21:30.565Z,1.40
2022-10-23T21:27:29.968Z,1.40
2022-10-23T21:29:17.866Z,1.10
2022-10-23T21:30:35.725Z,1.60
2022-10-23T21:32:37.726Z,1.70
2022-10-23T21:38:38.902Z,1.50
2022-10-23T21:40:38.523Z,1.70
2022-10-23T21:42:38.002Z,1.10
2022-10-23T21:44:07.854Z,1.40
2022-10-23T21:47:38.142Z,1.20
2022-10-23T21:50:07.396Z,1.00
2022-10-23T21:54:38.600Z,1.80
2022-10-23T21:59:45.963Z,1.40
2022-10-23T22:03:18.405Z,1.60
2022-10-23T22:05:18.962Z,1.30
2022-10-23T22:06:49.212Z,1.70
2022-10-23T22:15:23.670Z,1.40
2022-10-23T22:17:56.716Z,1.20
2022-10-23T22:23:27.679Z,2.10
2022-10-23T22:25:58.045Z,1.70
2022-10-23T22:29:59.716Z,1.10
2022-10-23T22:32:00.475Z,1.60
2022-10-23T22:35:00.365Z,0.80
2022-10-23T22:46:11.697Z,1.70
2022-10-23T22:49:14.234Z,1.40
2022-10-23T23:00:54.722Z,1.40
2022-10-23T23:02:55.166Z,1.20
2022-10-23T23:04:55.497Z,1.50
2022-10-23T23:08:26.036Z,1.20
2022-10-23T23:12:02.306Z,1.50
2022-10-23T23:15:33.661Z,1.10
2022-10-23T23:20:34.308Z,1.20
2022-10-23T23:28:45.819Z,0.90
2022-10-23T23:30:15.935Z,1.10
2022-10-23T23:37:21.926Z,1.00
2022-10-23T23:38:52.090Z,1.00
2022-10-23T23:40:52.454Z,1.00
2022-10-23T23:45:56.477Z,1.40
2022-10-23T23:49:29.380Z,1.60
2022-10-23T23:55:34.042Z,2.10
2022-10-23T23:59:36.503Z,1.50
